Latest Weather Observations for Cobar Airport

IDN60801

Issued at 7:52 am EST Tuesday 25 September 2018 (issued every 10 minutes, with the page automatically refreshed every 10 minutes)

About weather observations | Map of weather stations | Latest weather observations for NSW | Other Formats
Station Details ID: 048237 Name: COBAR AIRPORT AWS Lat: -31.54 Lon: 145.80 Height: 218.0 m
Data from the previous 72 hours. | See also: Recent months at Cobar Airport
Date/Time
EST
Temp
°C
App
Temp
°C
Dew
Point
°C
Rel
Hum
%
Delta-T
°C
Wind Press
QNH
hPa
Press
MSL
hPa
Rain since
9am
mm
Dir  Spd
km/h
Gust
km/h
Spd
kts
Gust
kts
25/07:30am 13.7 9.6 6.1 60 3.7 E 17 24 9 13 1023.9 1023.7 0.0
25/07:00am 12.4 8.6 5.8 64 3.1 E 15 20 8 11 1023.7 1023.5 0.0
25/06:30am 11.6 8.2 5.7 67 2.8 E 13 19 7 10 1023.4 1023.2 0.0
25/06:00am 11.4 8.2 5.3 66 2.8 E 11 19 6 10 1023.2 1023.0 0.0
25/05:30am 11.6 7.6 5.0 64 3.1 E 15 22 8 12 1022.8 1022.6 0.0
25/05:00am 12.0 8.4 5.0 62 3.2 ESE 13 19 7 10 1022.7 1022.5 0.0
25/04:30am 12.5 8.2 5.2 61 3.4 E 17 26 9 14 1022.4 1022.2 0.0
25/04:00am 12.8 8.1 5.0 59 3.6 E 19 26 10 14 1022.2 1022.0 0.0
25/03:30am 13.1 9.1 4.8 57 3.9 E 15 22 8 12 1022.2 1022.0 0.0
25/03:00am 13.4 9.7 4.6 55 4.1 E 13 19 7 10 1022.4 1022.2 0.0
25/02:30am 13.9 9.4 4.2 52 4.5 E 17 20 9 11 1022.5 1022.3 0.0
25/02:00am 14.3 9.9 4.6 52 4.5 E 17 24 9 13 1022.6 1022.4 0.0
25/01:56am 14.2 10.6 4.8 53 4.4 E 13 24 7 13 1022.7 1022.5 0.0
25/01:30am 9.1 5.2 -6.3 33 5.3 SSE 6 7 3 4 1022.9 1022.7 0.0
25/01:00am 9.8 7.2 -5.3 34 5.4 CALM 0 0 0 0 1022.9 1022.7 0.0
25/12:30am 10.2 7.6 -5.3 33 5.6 CALM 0 0 0 0 1023.0 1022.8 0.0
25/12:00am 10.9 8.2 -5.5 31 5.9 CALM 0 0 0 0 1022.9 1022.7 0.0
 
Date/Time
EST
Temp
°C
App
Temp
°C
Dew
Point
°C
Rel
Hum
%
Delta-T
°C
Wind Press
QNH
hPa
Press
MSL
hPa
Rain since
9am
mm
Dir  Spd
km/h
Gust
km/h
Spd
kts
Gust
kts
24/11:30pm 11.9 9.3 -5.1 30 6.3 CALM 0 0 0 0 1022.8 1022.6 0.0
24/11:00pm 12.5 8.8 -5.0 29 6.5 WSW 6 7 3 4 1022.7 1022.5 0.0
24/10:30pm 13.5 9.8 -4.6 28 6.9 SSW 6 7 3 4 1022.8 1022.6 0.0
24/10:00pm 15.3 11.1 -4.1 26 7.6 SSW 9 11 5 6 1022.9 1022.7 0.0
24/09:30pm 16.5 12.0 -3.6 25 8.1 SSW 11 13 6 7 1022.9 1022.7 0.0
24/09:00pm 17.3 12.5 -2.9 25 8.3 SSW 13 19 7 10 1022.9 1022.7 0.0
24/08:30pm 17.5 12.3 -2.7 25 8.3 SSW 15 17 8 9 1022.8 1022.6 0.0
24/08:00pm 15.9 11.7 -4.1 25 7.9 SW 9 11 5 6 1022.5 1022.3 0.0
24/07:30pm 17.4 13.6 -3.9 23 8.6 SSW 7 9 4 5 1022.1 1021.9 0.0
24/07:00pm 19.0 14.4 -3.8 21 9.3 SW 11 13 6 7 1021.9 1021.7 0.0
24/06:30pm 20.7 15.7 -4.4 18 10.3 SW 13 17 7 9 1021.6 1021.4 0.0
24/06:00pm 21.8 16.3 -5.1 16 11.0 SSW 15 19 8 10 1021.4 1021.1 0.0
24/05:30pm 22.5 16.7 -4.5 16 11.3 S 17 24 9 13 1021.3 1021.0 0.0
24/05:00pm 23.1 17.9 -2.5 18 11.1 SSW 15 20 8 11 1021.1 1020.8 0.0
24/04:30pm 23.0 17.4 -3.3 17 11.3 SW 17 26 9 14 1021.0 1020.7 0.0
24/04:00pm 22.8 18.5 -2.0 19 10.9 SSE 11 17 6 9 1021.0 1020.7 0.0
24/03:30pm 22.6 17.6 -1.5 20 10.7 SSW 15 24 8 13 1021.3 1021.0 0.0
24/03:00pm 22.7 18.1 -1.4 20 10.7 WSW 13 20 7 11 1021.7 1021.5 0.0
24/02:30pm 22.3 18.5 -0.4 22 10.3 SE 9 17 5 9 1022.0 1021.8 0.0
24/02:00pm 22.0 17.9 -0.1 23 10.0 SW 11 24 6 13 1022.6 1022.4 0.0
24/01:30pm 22.4 17.6 0.3 23 10.1 SW 15 22 8 12 1023.0 1022.8 0.0
24/01:00pm 21.7 17.7 0.8 25 9.6 WSW 11 20 6 11 1023.3 1023.1 0.0
24/12:30pm 20.4 16.1 0.8 27 8.9 WSW 13 22 7 12 1023.7 1023.5 0.0
24/12:00pm 20.3 15.6 1.2 28 8.7 W 15 22 8 12 1024.2 1024.0 0.0
24/11:30am 19.5 15.3 1.9 31 8.1 SW 13 20 7 11 1025.0 1024.7 0.0
24/11:00am 19.2 15.4 1.7 31 8.0 SW 11 19 6 10 1025.4 1025.2 0.0
24/10:30am 17.8 13.5 1.3 33 7.4 SW 13 20 7 11 1025.9 1025.7 0.0
24/10:00am 17.0 12.3 1.0 34 7.1 S 15 20 8 11 1026.2 1026.0 0.0
24/09:30am 16.3 11.7 1.6 37 6.6 S 15 20 8 11 1026.5 1026.3 0.0
24/09:00am 15.4 10.8 1.5 39 6.1 SSW 15 20 8 11 1026.6 1026.4 0.0
24/08:30am 14.1 9.1 1.1 41 5.6 S 17 24 9 13 1026.5 1026.3 0.0
24/08:00am 13.4 8.0 1.4 44 5.2 S 19 24 10 13 1026.4 1026.2 0.0
24/07:30am 12.4 7.4 1.1 46 4.8 S 17 24 9 13 1026.3 1026.1 0.0
24/07:00am 11.2 6.6 1.5 51 4.1 SSW 15 22 8 12 1026.0 1025.8 0.0
24/06:30am 10.3 6.4 1.4 54 3.8 SSW 11 15 6 8 1025.8 1025.6 0.0
24/06:00am 10.5 5.9 1.3 53 3.9 S 15 20 8 11 1025.5 1025.3 0.0
24/05:30am 11.1 6.5 1.6 52 4.1 SSE 15 20 8 11 1025.2 1024.9 0.0
24/05:00am 10.9 7.1 2.0 54 3.8 S 11 15 6 8 1024.9 1024.6 0.0
24/04:30am 12.8 8.7 2.4 49 4.6 SSE 13 17 7 9 1024.6 1024.3 0.0
24/04:00am 13.6 9.2 2.5 47 4.9 SSE 15 20 8 11 1024.2 1024.0 0.0
24/03:30am 14.0 10.0 2.6 46 5.1 SSE 13 19 7 10 1024.0 1023.8 0.0
24/03:00am 14.6 9.8 2.8 45 5.3 SSE 17 22 9 12 1023.9 1023.7 0.0
24/02:30am 14.5 10.4 2.4 44 5.4 SSE 13 19 7 10 1024.1 1023.9 0.0
24/02:00am 14.2 10.3 1.2 41 5.6 S 11 15 6 8 1024.8 1024.5 0.0
24/01:30am 15.2 10.5 1.0 38 6.2 SSE 15 19 8 10 1024.7 1024.4 0.0
24/01:00am 15.0 11.3 -0.3 35 6.5 SE 9 11 5 6 1024.7 1024.4 0.0
24/12:30am 15.1 10.9 -1.0 33 6.7 S 11 13 6 7 1024.8 1024.5 0.0
24/12:00am 16.0 11.4 -1.1 31 7.2 SSW 13 19 7 10 1024.9 1024.6 0.0
 
Date/Time
EST
Temp
°C
App
Temp
°C
Dew
Point
°C
Rel
Hum
%
Delta-T
°C
Wind Press
QNH
hPa
Press
MSL
hPa
Rain since
9am
mm
Dir  Spd
km/h
Gust
km/h
Spd
kts
Gust
kts
23/11:30pm 16.6 11.2 -1.5 29 7.6 SSW 17 20 9 11 1025.0 1024.7 0.0
23/11:00pm 16.7 12.4 -1.9 28 7.7 SSW 11 13 6 7 1025.1 1024.8 0.0
23/10:30pm 17.7 13.1 -1.0 28 8.0 SSW 13 17 7 9 1025.2 1024.9 0.0
23/10:00pm 18.4 13.1 -0.9 27 8.3 SSW 17 19 9 10 1025.3 1025.0 0.0
23/09:30pm 19.1 13.8 -0.3 27 8.5 SSW 17 20 9 11 1025.2 1024.9 0.0
23/09:00pm 20.0 14.4 -0.1 26 8.9 SSW 19 26 10 14 1025.2 1024.9 0.0
23/08:30pm 20.5 14.8 0.4 26 9.1 SSW 20 30 11 16 1024.9 1024.6 0.0
23/08:00pm 20.9 15.6 -0.4 24 9.5 SSW 17 24 9 13 1024.6 1024.3 0.0
23/07:30pm 21.6 16.5 -1.6 21 10.2 SSW 15 20 8 11 1024.4 1024.1 0.0
23/07:00pm 22.2 16.3 -2.5 19 10.7 SSW 19 26 10 14 1023.9 1023.7 0.0
23/06:30pm 23.1 16.3 -4.9 15 11.7 SSW 22 35 12 19 1023.5 1023.3 0.0
23/06:00pm 24.0 17.5 -2.5 17 11.6 SSW 22 32 12 17 1023.1 1022.9 0.0
23/05:30pm 24.6 18.0 -0.5 19 11.5 SSW 24 33 13 18 1022.9 1022.7 0.0
23/05:00pm 25.5 18.9 -0.5 18 12.0 SSW 24 35 13 19 1022.6 1022.4 0.0
23/04:30pm 25.9 18.9 -0.2 18 12.2 SSW 26 39 14 21 1022.6 1022.4 0.0
23/04:00pm 26.7 19.8 0.4 18 12.4 SSW 26 39 14 21 1022.5 1022.3 0.0
23/03:30pm 26.6 19.6 -0.4 17 12.6 SSW 26 41 14 22 1022.6 1022.4 0.0
23/03:00pm 27.3 20.3 -0.7 16 13.0 SW 26 43 14 23 1022.9 1022.7 0.0
23/02:30pm 27.0 20.7 -0.9 16 13.0 WSW 22 35 12 19 1023.0 1022.8 0.0
23/02:00pm 27.4 21.7 -0.6 16 13.1 SW 19 35 10 19 1023.4 1023.2 0.0
23/01:30pm 26.0 20.7 -0.9 17 12.4 S 17 28 9 15 1023.9 1023.7 0.0
23/01:00pm 26.4 22.0 0.2 18 12.3 SSW 13 26 7 14 1024.6 1024.3 0.0
23/12:30pm 26.0 19.9 0.6 19 12.0 SW 22 37 12 20 1025.2 1024.9 0.0
23/12:00pm 25.2 20.1 0.7 20 11.5 S 17 35 9 19 1025.8 1025.6 0.0
23/11:30am 25.3 19.8 0.8 20 11.6 SW 19 32 10 17 1026.2 1026.0 0.0
23/11:00am 25.9 21.9 2.6 22 11.4 S 13 20 7 11 1026.6 1026.4 0.0
23/10:30am 24.8 19.9 2.3 23 10.9 SSW 17 26 9 14 1026.9 1026.7 0.0
23/10:00am 23.7 19.1 1.4 23 10.5 SW 15 22 8 12 1027.0 1026.8 0.0
23/09:30am 23.5 20.5 1.8 24 10.3 WSW 7 13 4 7 1027.0 1026.8 0.0
23/09:00am 21.2 18.1 0.4 25 9.4 WNW 6 9 3 5 1027.0 1026.8 0.0
23/08:30am 19.6 17.6 0.1 27 8.7 CALM 0 0 0 0 1027.0 1026.8 0.0
23/08:00am 15.8 13.8 -0.4 33 6.9 CALM 0 0 0 0 1026.9 1026.7 0.0
23/07:30am 12.5 10.3 -1.8 37 5.7 CALM 0 0 0 0 1026.8 1026.6 0.0
23/07:00am 9.3 7.0 -2.6 43 4.5 CALM 0 0 0 0 1026.6 1026.4 0.0
23/06:30am 6.7 4.1 -5.3 42 4.1 CALM 0 6 0 3 1026.1 1025.9 0.0
23/06:00am 6.6 2.5 -6.3 39 4.3 NE 7 9 4 5 1025.8 1025.6 0.0
23/05:30am 7.4 3.2 -3.7 45 4.0 NE 9 9 5 5 1025.5 1025.3 0.0
23/05:00am 7.2 3.2 -6.1 38 4.5 NE 7 7 4 4 1025.3 1025.0 0.0
23/04:30am 9.0 5.4 -2.3 45 4.3 NE 7 9 4 5 1025.1 1024.8 0.0
23/04:00am 7.5 3.5 -5.9 38 4.6 NE 7 9 4 5 1025.0 1024.7 0.0
23/03:30am 7.1 4.4 -6.2 38 4.5 CALM 0 0 0 0 1025.1 1024.8 0.0
23/03:00am 7.4 3.5 -6.3 37 4.6 NE 6 6 3 3 1025.1 1024.8 0.0
23/02:30am 8.4 4.5 -5.1 38 4.8 ENE 7 9 4 5 1025.2 1024.9 0.0
23/02:00am 8.4 4.5 -4.7 39 4.6 NE 7 9 4 5 1025.6 1025.4 0.0
23/01:30am 8.8 4.9 -4.4 39 4.8 NE 7 11 4 6 1026.0 1025.8 0.0
23/01:00am 8.5 5.6 -4.6 39 4.7 ENE 2 7 1 4 1026.2 1026.0 0.0
23/12:30am 8.9 6.3 -4.6 38 4.9 CALM 0 0 0 0 1026.5 1026.3 0.0
23/12:00am 9.4 6.8 -4.5 37 5.0 CALM 0 0 0 0 1026.5 1026.3 0.0
 
Date/Time
EST
Temp
°C
App
Temp
°C
Dew
Point
°C
Rel
Hum
%
Delta-T
°C
Wind Press
QNH
hPa
Press
MSL
hPa
Rain since
9am
mm
Dir  Spd
km/h
Gust
km/h
Spd
kts
Gust
kts
22/11:30pm 9.9 7.4 -4.4 36 5.2 CALM 0 0 0 0 1026.5 1026.3 0.0
22/11:00pm 10.4 7.9 -4.4 35 5.4 CALM 0 0 0 0 1026.4 1026.2 0.0
22/10:30pm 10.8 7.0 -5.6 31 5.9 ENE 6 7 3 4 1026.4 1026.2 0.0
22/10:00pm 11.6 7.9 -4.5 32 6.0 ENE 6 7 3 4 1026.5 1026.3 0.0
22/09:30pm 11.9 8.0 -4.7 31 6.2 NE 7 9 4 5 1026.5 1026.3 0.0
22/09:00pm 12.7 10.2 -4.0 31 6.3 CALM 0 0 0 0 1026.6 1026.4 0.0
22/08:30pm 13.5 11.0 -4.2 29 6.8 CALM 0 0 0 0 1026.5 1026.3 0.0
22/08:00pm 14.4 11.2 -3.4 29 7.0 NE 4 6 2 3 1026.2 1026.0 0.0
22/07:30pm 15.6 13.1 -3.8 26 7.7 CALM 0 0 0 0 1026.0 1025.8 0.0
22/07:00pm 17.3 14.9 -3.4 24 8.4 CALM 0 0 0 0 1025.6 1025.4 0.0
22/06:30pm 20.1 16.9 -3.5 20 9.8 W 4 6 2 3 1025.3 1025.0 0.0
22/06:00pm 23.3 19.8 -1.6 19 11.0 W 7 9 4 5 1025.0 1024.7 0.0
22/05:30pm 23.8 19.5 -1.9 18 11.4 S 11 17 6 9 1024.7 1024.4 0.0
22/05:00pm 24.1 20.1 -2.4 17 11.6 S 9 13 5 7 1024.5 1024.2 0.0
22/04:30pm 24.3 19.5 -2.3 17 11.8 S 13 24 7 13 1024.5 1024.2 0.0
22/04:00pm 23.5 18.7 -2.9 17 11.4 S 13 26 7 14 1024.6 1024.3 0.0
22/03:30pm 23.9 18.4 -1.8 18 11.5 SSW 17 26 9 14 1024.8 1024.5 0.0
22/03:00pm 23.2 19.4 -1.0 20 10.8 W 9 19 5 10 1025.2 1024.9 0.0
22/02:30pm 23.1 18.1 -1.1 20 10.9 W 15 22 8 12 1025.5 1025.3 0.0
22/02:00pm 23.5 18.9 -0.7 20 10.9 SSW 13 22 7 12 1025.8 1025.6 0.0
22/01:30pm 23.1 18.9 -1.1 20 10.9 SSW 11 17 6 9 1026.1 1025.9 0.0
22/01:00pm 23.4 20.2 -0.8 20 10.9 NNW 6 17 3 9 1026.7 1026.5 0.0
22/12:30pm 23.2 18.6 -1.0 20 10.9 WSW 13 22 7 12 1027.2 1027.0 0.0
22/12:00pm 22.4 18.6 -1.0 21 10.4 WSW 9 17 5 9 1027.7 1027.5 0.0
22/11:30am 22.4 18.7 -0.3 22 10.3 WSW 9 17 5 9 1028.2 1028.0 0.0
22/11:00am 22.2 18.8 -0.5 22 10.2 W 7 15 4 8 1028.7 1028.5 0.0
22/10:30am 21.3 17.5 -0.6 23 9.8 WNW 9 15 5 8 1029.0 1028.8 0.0
22/10:00am 21.4 18.2 -0.6 23 9.8 SE 6 9 3 5 1029.3 1029.0 0.0
22/09:30am 20.6 17.5 -0.1 25 9.3 NNW 6 9 3 5 1029.4 1029.2 0.0
22/09:00am 19.6 16.8 -0.4 26 8.8 NNE 4 9 2 5 1029.2 1028.9 0.0
22/08:30am 19.0 15.2 -0.9 26 8.7 N 9 11 5 6 1029.0 1028.8 0.0
22/08:00am 16.8 14.6 -1.3 29 7.6 CALM 0 4 0 2 1028.6 1028.4 0.0

Other Formats:

Comma delimited format used in spreadsheet applications
http://www.bom.gov.au/fwo/IDN60801/IDN60801.94710.axf

JavaScript Object Notation format (JSON) in row-major order
http://www.bom.gov.au/fwo/IDN60801/IDN60801.94710.json